Time;durP1;ratioP1;P1;durP2;ratioP2;P2;SDS_P1;SDS_P2;PMS_P1;PMS_P2;Temp;Humidity;BMP_temperature;BMP_pressure;BME280_temperature;BME280_humidity;BME280_pressure;Samples;Min_cycle;Max_cycle;Signal;HPM_P1;HPM_P2
2023/10/30 00:00:29;;;;;;;2.90;2.70;;;11.70;99.90;;;11.34;100.00;96928.44;4967316;28;20449;-72
2023/10/30 00:02:58;;;;;;;2.80;2.53;;;11.70;99.90;;;11.46;100.00;96927.53;4975834;28;20798;-73
2023/10/30 00:05:25;;;;;;;3.00;2.80;;;11.70;99.90;;;11.45;100.00;96934.81;4969267;28;20458;-72
2023/10/30 00:07:53;;;;;;;3.23;2.20;;;11.70;99.90;;;11.45;100.00;96936.69;4954539;28;20474;-72
2023/10/30 00:10:20;;;;;;;3.00;2.20;;;11.70;99.90;;;11.50;100.00;96944.88;4972068;28;20857;-72
2023/10/30 00:12:47;;;;;;;3.20;2.33;;;11.80;99.90;;;11.46;100.00;96939.13;4960401;28;20446;-72
2023/10/30 00:15:15;;;;;;;2.30;2.10;;;11.80;99.90;;;11.58;100.00;96936.31;4969070;28;20469;-72
2023/10/30 00:17:42;;;;;;;3.37;2.67;;;11.80;99.90;;;11.55;100.00;96950.34;4967789;28;20473;-73
2023/10/30 00:20:11;;;;;;;2.43;2.23;;;11.90;99.90;;;11.54;100.00;96946.00;4968362;28;21015;-72
2023/10/30 00:22:38;;;;;;;2.47;2.27;;;11.80;99.90;;;11.54;100.00;96943.31;4966966;28;20462;-73
2023/10/30 00:25:06;;;;;;;5.17;2.67;;;11.80;99.90;;;11.66;100.00;96950.50;4950684;28;20463;-72
2023/10/30 00:27:33;;;;;;;2.63;2.40;;;11.90;99.90;;;11.68;100.00;96951.09;4977364;28;20521;-73
2023/10/30 00:30:00;;;;;;;3.10;2.80;;;12.00;99.90;;;11.56;100.00;96954.69;4967603;28;20533;-72
2023/10/30 00:32:27;;;;;;;4.40;3.17;;;12.00;99.90;;;11.58;100.00;96957.16;4950331;28;20447;-73
2023/10/30 00:34:55;;;;;;;3.07;2.80;;;12.00;99.90;;;11.47;100.00;96964.31;4970537;28;20807;-73
2023/10/30 00:37:23;;;;;;;3.07;2.87;;;11.90;99.90;;;11.48;100.00;96974.88;4952413;28;20821;-72
2023/10/30 00:39:51;;;;;;;4.23;3.37;;;11.90;99.90;;;11.57;100.00;96977.97;4966264;28;20465;-73
2023/10/30 00:42:18;;;;;;;3.07;2.60;;;12.00;99.90;;;11.52;100.00;96980.63;4945778;28;20510;-74
2023/10/30 00:44:45;;;;;;;6.10;2.10;;;12.00;99.90;;;11.60;100.00;96984.78;4967682;28;20466;-72
2023/10/30 00:47:12;;;;;;;2.67;2.47;;;12.00;99.90;;;11.60;100.00;96984.78;4965002;28;20453;-72
2023/10/30 00:49:40;;;;;;;3.47;2.27;;;12.00;99.90;;;11.57;100.00;96990.69;4966802;28;20564;-72
2023/10/30 00:52:07;;;;;;;2.90;2.30;;;12.00;99.70;;;11.51;100.00;96989.78;4966427;28;20818;-72
2023/10/30 00:54:36;;;;;;;3.33;2.70;;;12.00;99.60;;;11.59;100.00;96989.38;4968790;28;20461;-71
2023/10/30 00:57:03;;;;;;;2.50;2.30;;;12.00;99.80;;;11.49;100.00;96989.22;4966272;28;20502;-72
2023/10/30 00:59:30;;;;;;;3.00;1.83;;;12.00;99.20;;;11.57;100.00;96979.88;4966588;28;20503;-72
2023/10/30 01:01:58;;;;;;;2.77;2.10;;;12.00;99.40;;;11.60;100.00;96984.78;4966879;28;20919;-71
2023/10/30 01:04:26;;;;;;;2.10;2.00;;;12.00;99.40;;;11.59;100.00;96994.78;4951980;28;20534;-72
2023/10/30 01:06:53;;;;;;;2.53;2.33;;;12.00;99.00;;;11.60;100.00;96993.75;4965066;28;20463;-72
2023/10/30 01:09:20;;;;;;;2.80;1.90;;;12.00;98.80;;;11.62;100.00;96999.72;4966506;28;20985;-72
2023/10/30 01:11:48;;;;;;;2.40;2.20;;;12.00;98.50;;;11.56;100.00;97002.59;4967062;28;20499;-72
2023/10/30 01:14:15;;;;;;;2.67;2.30;;;12.00;99.00;;;11.13;100.00;96945.38;4967308;28;21191;-72
2023/10/30 01:16:43;;;;;;;2.60;2.40;;;12.00;98.40;;;11.61;100.00;97000.78;4960694;28;20461;-73
2023/10/30 01:19:10;;;;;;;2.80;2.30;;;12.00;98.70;;;11.60;100.00;97003.72;4966461;28;20513;-74
2023/10/30 01:21:38;;;;;;;2.70;2.10;;;11.90;98.40;;;11.51;100.00;97006.03;4965775;28;20451;-74
2023/10/30 01:24:06;;;;;;;2.50;2.30;;;11.90;98.30;;;11.58;100.00;97012.06;4950605;28;20591;-74
2023/10/30 01:26:33;;;;;;;2.70;2.50;;;12.00;98.70;;;11.51;100.00;97011.44;4965925;28;20858;-74
2023/10/30 01:29:02;;;;;;;4.83;2.67;;;11.90;98.10;;;11.42;100.00;97015.59;4966589;28;20558;-74
2023/10/30 01:31:29;;;;;;;3.63;2.23;;;11.90;98.30;;;11.46;100.00;97020.28;4965653;28;20522;-73
2023/10/30 01:33:56;;;;;;;2.70;2.43;;;11.90;98.60;;;11.51;100.00;97011.44;4968300;28;20461;-74
2023/10/30 01:36:24;;;;;;;5.50;1.93;;;11.90;99.00;;;11.53;100.00;97022.03;4966536;28;20449;-74
2023/10/30 01:38:51;;;;;;;2.80;2.60;;;11.90;98.20;;;11.49;100.00;97016.28;4965922;28;20489;-74
2023/10/30 01:41:18;;;;;;;2.80;2.53;;;11.90;98.20;;;11.52;100.00;97013.06;4966985;28;20469;-74
2023/10/30 01:43:45;;;;;;;4.40;3.03;;;11.90;98.20;;;11.50;100.00;97008.97;4967236;28;20473;-74
2023/10/30 01:46:14;;;;;;;4.73;2.50;;;12.00;97.90;;;11.52;100.00;97013.06;4963511;28;21084;-72
2023/10/30 01:48:41;;;;;;;5.83;2.83;;;11.90;97.80;;;11.48;100.00;97014.63;4968033;28;20456;-74
2023/10/30 01:51:09;;;;;;;15.37;3.30;;;12.00;97.60;;;11.62;100.00;97018.66;4970722;28;20458;-73
2023/10/30 01:53:38;;;;;;;2.80;2.60;;;12.00;97.60;;;11.66;100.00;97018.16;4956129;28;20450;-73
2023/10/30 01:56:07;;;;;;;5.90;2.43;;;12.00;97.30;;;11.37;100.00;96983.88;4966449;28;20450;-74
2023/10/30 01:58:35;;;;;;;5.37;2.47;;;12.00;97.00;;;11.69;100.00;97023.91;4945495;28;20455;-73
2023/10/30 02:01:03;;;;;;;3.27;2.97;;;12.00;97.80;;;11.80;100.00;97019.44;4966528;28;20484;-74
2023/10/30 02:03:31;;;;;;;3.00;2.70;;;12.00;98.30;;;11.74;100.00;97015.00;4970872;28;20458;-74
2023/10/30 02:05:59;;;;;;;3.70;2.97;;;12.00;98.00;;;11.68;100.00;97010.59;4966076;28;20789;-73
2023/10/30 02:08:25;;;;;;;3.13;2.77;;;12.00;98.30;;;11.64;100.00;97021.09;4967068;28;20507;-73
2023/10/30 02:10:53;;;;;;;2.63;2.43;;;12.00;98.20;;;11.60;100.00;97018.09;4968994;28;20548;-73
2023/10/30 02:13:20;;;;;;;3.50;2.77;;;12.00;97.90;;;11.30;100.00;96967.00;4965901;28;20515;-73
2023/10/30 02:15:47;;;;;;;2.50;2.30;;;12.00;98.00;;;11.65;100.00;97022.72;4952212;28;20456;-73
2023/10/30 02:18:14;;;;;;;3.07;2.77;;;12.00;98.60;;;11.73;100.00;97018.78;4962595;28;20525;-74
2023/10/30 02:20:43;;;;;;;3.03;2.70;;;12.10;98.90;;;11.72;100.00;97023.41;4967825;28;20466;-73
2023/10/30 02:23:10;;;;;;;3.17;2.53;;;12.00;98.70;;;11.81;100.00;97021.09;4952384;28;20549;-73
2023/10/30 02:25:39;;;;;;;5.97;2.80;;;12.10;98.70;;;11.75;100.00;97019.34;4970482;28;20454;-73
2023/10/30 02:28:07;;;;;;;4.30;3.10;;;12.10;98.70;;;11.68;100.00;97016.84;4974186;28;20461;-73
2023/10/30 02:30:34;;;;;;;2.87;2.57;;;12.00;98.40;;;11.60;100.00;97031.63;4964046;28;20474;-74
2023/10/30 02:33:01;;;;;;;3.23;2.83;;;12.00;98.60;;;11.58;100.00;97030.22;4974930;28;20469;-73
2023/10/30 02:35:28;;;;;;;2.90;2.70;;;11.90;98.70;;;11.67;100.00;97020.59;4971135;28;20847;-73
2023/10/30 02:37:55;;;;;;;3.13;2.83;;;12.00;99.50;;;11.57;100.00;97009.63;4969378;28;20796;-73
2023/10/30 02:40:23;;;;;;;3.07;2.80;;;11.90;99.00;;;11.57;100.00;97010.44;4969141;28;20460;-73
2023/10/30 02:42:51;;;;;;;3.87;3.10;;;11.90;99.70;;;11.59;100.00;97002.88;4973375;28;20457;-73
2023/10/30 02:45:19;;;;;;;3.57;2.90;;;11.90;99.90;;;11.51;100.00;97006.03;4969202;28;20466;-74
2023/10/30 02:47:46;;;;;;;3.10;2.80;;;11.80;99.90;;;11.48;100.00;97003.81;4966568;28;20960;-73
2023/10/30 02:50:15;;;;;;;3.60;2.87;;;11.80;99.90;;;11.42;100.00;97007.50;4968143;28;20486;-74
2023/10/30 02:52:42;;;;;;;3.70;3.10;;;11.70;99.90;;;11.03;100.00;96935.22;4969215;28;20461;-72
2023/10/30 02:55:10;;;;;;;3.30;2.70;;;11.70;99.90;;;11.42;100.00;97002.09;4968610;28;20454;-73
2023/10/30 02:57:37;;;;;;;4.00;2.80;;;11.70;99.90;;;11.41;100.00;96997.75;4967680;28;20569;-74
2023/10/30 03:00:08;;;;;;;2.63;2.23;;;11.70;99.90;;;11.31;100.00;96985.72;4951683;28;20450;-72
2023/10/30 03:02:35;;;;;;;2.57;2.40;;;11.70;99.90;;;11.30;100.00;97010.28;4967333;28;20478;-72
2023/10/30 03:05:03;;;;;;;2.77;2.53;;;11.70;99.50;;;11.03;100.00;96984.69;4968960;28;20949;-72
2023/10/30 03:07:30;;;;;;;2.90;2.70;;;11.50;99.60;;;11.11;100.00;97009.69;4968228;28;20454;-73
2023/10/30 03:09:57;;;;;;;3.63;2.90;;;11.40;99.90;;;10.99;100.00;96999.75;4965368;28;20480;-73
2023/10/30 03:12:24;;;;;;;3.17;2.87;;;11.40;99.90;;;11.06;100.00;96999.59;4968060;28;20467;-73
2023/10/30 03:14:51;;;;;;;3.00;2.80;;;11.40;99.90;;;10.79;100.00;96966.97;4966237;28;20559;-73
2023/10/30 03:17:20;;;;;;;2.80;2.60;;;11.40;99.90;;;11.04;100.00;97002.56;4967121;28;20482;-73
2023/10/30 03:19:47;;;;;;;4.00;3.20;;;11.40;99.90;;;11.08;100.00;96999.34;4968528;28;20456;-73
2023/10/30 03:22:14;;;;;;;3.57;3.20;;;11.50;99.90;;;11.08;100.00;96999.34;4950967;28;20508;-73
2023/10/30 03:24:42;;;;;;;3.40;3.10;;;11.50;99.90;;;11.05;100.00;96998.78;4968207;28;20538;-73
2023/10/30 03:27:09;;;;;;;3.77;3.17;;;11.50;99.90;;;11.00;100.00;96998.72;4965899;28;20513;-72
2023/10/30 03:29:37;;;;;;;5.43;3.20;;;11.40;99.90;;;10.98;100.00;96998.09;4968032;28;21028;-74
2023/10/30 03:32:05;;;;;;;3.30;3.10;;;11.40;99.90;;;10.97;100.00;97009.16;4968494;28;20447;-72
2023/10/30 03:34:36;;;;;;;3.53;3.20;;;11.30;99.90;;;10.91;100.00;97019.06;4969633;28;20457;-73
2023/10/30 03:37:03;;;;;;;5.80;2.93;;;11.30;99.90;;;10.77;100.00;97016.66;4967884;28;20524;-75
2023/10/30 03:39:30;;;;;;;4.03;3.37;;;11.30;99.90;;;10.72;100.00;97000.34;4967755;28;20457;-73
2023/10/30 03:41:58;;;;;;;2.77;2.47;;;11.20;99.90;;;10.73;100.00;96996.59;4968153;28;20544;-73
2023/10/30 03:44:26;;;;;;;4.47;3.47;;;11.20;99.90;;;10.80;100.00;96995.63;4951484;28;20529;-72
2023/10/30 03:46:53;;;;;;;3.63;2.70;;;11.20;99.90;;;10.80;100.00;96987.50;4966749;28;20489;-73
2023/10/30 03:49:21;;;;;;;3.73;2.63;;;11.20;99.90;;;10.71;100.00;96989.78;4966866;28;20515;-74
2023/10/30 03:51:49;;;;;;;2.77;2.57;;;11.20;99.90;;;10.67;100.00;96988.63;4954478;28;20484;-73
2023/10/30 03:54:17;;;;;;;3.43;2.80;;;11.20;99.90;;;10.65;100.00;96993.47;4966740;28;20457;-72
2023/10/30 03:56:44;;;;;;;4.50;3.07;;;11.10;99.90;;;10.57;100.00;96981.16;4968212;28;20484;-73
2023/10/30 03:59:12;;;;;;;2.40;2.20;;;11.00;99.90;;;10.49;100.00;96985.88;4953353;28;20446;-72
2023/10/30 04:01:40;;;;;;;5.50;2.50;;;10.90;99.90;;;10.28;100.00;96990.00;4955167;28;20445;-73
2023/10/30 04:04:07;;;;;;;4.43;3.00;;;10.70;99.90;;;10.21;100.00;96984.75;4949806;28;21157;-72
2023/10/30 04:06:36;;;;;;;2.67;2.47;;;10.50;99.90;;;10.15;100.00;96979.47;4948700;28;20987;-72
2023/10/30 04:09:05;;;;;;;3.50;2.50;;;10.50;99.90;;;10.08;100.00;96976.91;4949056;28;20967;-73
2023/10/30 04:11:33;;;;;;;3.70;3.00;;;10.40;99.90;;;10.01;100.00;96989.72;4961567;28;20476;-73
2023/10/30 04:14:00;;;;;;;5.93;2.87;;;10.40;99.90;;;9.99;100.00;96981.84;4963640;28;20491;-73
2023/10/30 04:16:29;;;;;;;6.27;3.50;;;10.30;99.90;;;9.83;100.00;96978.00;4969497;28;20951;-72
2023/10/30 04:18:57;;;;;;;4.00;3.13;;;10.20;99.90;;;9.82;100.00;96979.06;4970511;28;20493;-73
2023/10/30 04:21:24;;;;;;;3.33;2.80;;;10.10;99.90;;;9.75;100.00;96984.59;4965123;28;20456;-74
2023/10/30 04:23:51;;;;;;;4.33;3.93;;;10.10;99.90;;;9.81;100.00;96984.69;4966815;28;20491;-73
2023/10/30 04:26:20;;;;;;;5.03;3.80;;;10.20;99.90;;;9.67;100.00;96984.13;4966313;28;20461;-72
2023/10/30 04:28:47;;;;;;;4.73;4.33;;;10.10;99.90;;;9.67;100.00;96970.63;4970739;28;20464;-73
2023/10/30 04:31:14;;;;;;;4.20;3.80;;;10.00;99.90;;;9.83;100.00;96966.38;4956898;28;20905;-72
2023/10/30 04:33:41;;;;;;;4.50;2.93;;;10.10;99.90;;;9.86;100.00;96977.53;4972416;28;20982;-72
2023/10/30 04:36:09;;;;;;;2.87;2.67;;;10.20;99.90;;;9.86;100.00;96964.03;4969537;28;20521;-70
2023/10/30 04:38:36;;;;;;;3.87;2.93;;;10.30;99.90;;;9.73;100.00;96958.88;4951926;28;20542;-72
2023/10/30 04:41:04;;;;;;;3.97;3.43;;;10.20;99.90;;;9.52;100.00;96954.91;4966083;28;20484;-73
2023/10/30 04:43:34;;;;;;;3.40;3.10;;;10.10;99.90;;;9.54;100.00;96980.59;4967503;28;20457;-73
2023/10/30 04:46:01;;;;;;;5.00;3.63;;;9.90;99.90;;;9.40;100.00;96984.56;4969153;28;20461;-72
2023/10/30 04:48:30;;;;;;;4.30;3.53;;;9.80;99.90;;;9.43;100.00;96978.72;4955964;28;20499;-74
2023/10/30 04:50:57;;;;;;;3.80;3.37;;;9.80;99.90;;;9.48;100.00;96981.53;4976418;28;20563;-73
2023/10/30 04:53:24;;;;;;;3.37;3.07;;;9.80;99.90;;;9.49;100.00;96980.50;4967033;28;20466;-73
2023/10/30 04:55:52;;;;;;;6.00;3.33;;;9.80;99.90;;;9.39;100.00;96972.94;4950802;28;20453;-72
2023/10/30 04:58:19;;;;;;;6.13;3.37;;;9.80;99.90;;;9.41;100.00;96967.34;4969538;28;21586;-73
2023/10/30 05:00:47;;;;;;;3.77;3.53;;;9.80;99.90;;;9.32;100.00;96962.28;4962563;28;20451;-73
2023/10/30 05:03:16;;;;;;;4.03;3.63;;;9.80;99.90;;;9.30;100.00;96952.81;4967624;28;20543;-72
2023/10/30 05:05:43;;;;;;;4.50;3.40;;;9.70;99.90;;;9.15;100.00;96951.38;4967514;28;20485;-73
2023/10/30 05:08:10;;;;;;;5.03;3.40;;;9.60;99.90;;;9.06;100.00;96950.91;4967064;28;20855;-74
2023/10/30 05:10:37;;;;;;;8.83;3.27;;;9.50;99.90;;;9.02;100.00;96949.72;4961847;28;20559;-73
2023/10/30 05:13:04;;;;;;;3.50;3.20;;;9.40;99.90;;;8.93;100.00;96943.03;4965003;28;20537;-73
2023/10/30 05:15:32;;;;;;;4.80;3.37;;;9.40;99.90;;;8.90;100.00;96943.50;4968274;28;20536;-73
2023/10/30 05:18:00;;;;;;;3.63;3.33;;;9.40;99.90;;;9.00;100.00;96946.44;4967196;28;20513;-72
2023/10/30 05:20:27;;;;;;;3.83;3.30;;;9.40;99.90;;;8.90;100.00;96935.41;4967949;28;20523;-72
2023/10/30 05:22:54;;;;;;;3.90;3.20;;;9.40;99.90;;;8.85;100.00;96944.19;4957380;28;20476;-72
2023/10/30 05:25:22;;;;;;;4.03;3.70;;;9.30;99.90;;;8.87;100.00;96941.25;4967154;28;20520;-73
2023/10/30 05:27:49;;;;;;;4.20;3.60;;;9.30;99.90;;;8.82;100.00;96936.56;4945280;28;20966;-73
2023/10/30 05:30:16;;;;;;;3.57;3.27;;;9.20;99.90;;;8.73;100.00;96936.09;4966583;28;20474;-74
2023/10/30 05:32:43;;;;;;;4.40;4.00;;;9.10;99.90;;;8.83;100.00;96932.00;4950183;28;20922;-73
2023/10/30 05:35:12;;;;;;;5.00;3.90;;;9.20;99.90;;;8.79;100.00;96927.06;4969594;28;20483;-73
2023/10/30 05:37:39;;;;;;;5.20;4.70;;;9.20;99.90;;;8.89;100.00;96928.38;4973456;28;20499;-72
2023/10/30 05:40:08;;;;;;;4.33;3.93;;;9.20;99.90;;;8.86;100.00;96936.91;4950308;28;20456;-73
2023/10/30 05:42:36;;;;;;;4.37;3.97;;;9.20;99.90;;;8.78;100.00;96936.19;4966635;28;20484;-73
2023/10/30 05:45:03;;;;;;;7.83;5.20;;;9.20;99.90;;;8.84;100.00;96941.72;4959902;28;20939;-74
2023/10/30 05:47:30;;;;;;;6.30;4.30;;;9.20;99.90;;;8.94;100.00;96936.59;4967361;28;21084;-73
2023/10/30 05:49:58;;;;;;;4.27;3.87;;;9.30;99.90;;;8.90;100.00;96938.91;4961978;28;20477;-73
2023/10/30 05:52:26;;;;;;;5.27;4.17;;;9.40;99.90;;;8.87;100.00;96950.16;4966974;28;20519;-73
2023/10/30 05:54:53;;;;;;;5.83;4.90;;;9.30;99.90;;;8.50;100.00;96875.72;4967365;28;20814;-78
2023/10/30 05:57:20;;;;;;;6.50;4.00;;;9.30;99.90;;;9.04;100.00;96933.31;4948918;28;21362;-77
2023/10/30 05:59:47;;;;;;;5.37;3.80;;;9.40;99.90;;;8.95;100.00;96935.53;4968217;28;20465;-75
2023/10/30 06:02:15;;;;;;;4.20;3.80;;;9.40;99.90;;;8.98;100.00;96932.38;4963001;28;20462;-75
2023/10/30 06:04:42;;;;;;;4.40;4.00;;;9.40;99.90;;;8.89;100.00;96931.88;4960014;28;20459;-72
2023/10/30 06:07:09;;;;;;;5.03;4.53;;;9.30;99.90;;;9.16;100.00;96927.94;4948229;28;20826;-72
2023/10/30 06:09:38;;;;;;;5.23;4.00;;;9.50;99.90;;;9.03;100.00;96921.75;4940582;28;20473;-72
2023/10/30 06:12:07;;;;;;;11.40;5.67;;;9.40;99.90;;;9.11;100.00;96919.75;4978277;28;20574;-71
2023/10/30 06:14:34;;;;;;;4.77;3.70;;;9.50;99.90;;;9.14;100.00;96932.75;4953096;28;20449;-71
2023/10/30 06:17:02;;;;;;;4.50;3.50;;;9.50;99.90;;;9.10;100.00;96926.19;4948217;28;20855;-73
2023/10/30 06:19:29;;;;;;;4.40;4.00;;;9.50;99.90;;;8.96;100.00;96910.22;4959543;28;21059;-79
2023/10/30 06:21:57;;;;;;;5.20;3.97;;;9.50;99.90;;;9.16;100.00;96933.31;4943704;28;20544;-76
2023/10/30 06:24:24;;;;;;;5.23;4.00;;;9.60;99.90;;;9.17;100.00;96948.44;4963136;28;20443;-73
2023/10/30 06:26:53;;;;;;;4.93;3.47;;;9.60;99.90;;;9.06;100.00;96950.06;4962564;28;20487;-70
2023/10/30 06:29:20;;;;;;;3.50;3.20;;;9.60;99.90;;;9.09;100.00;96956.88;4962006;28;22076;-71
2023/10/30 06:31:48;;;;;;;2.87;2.67;;;9.60;99.90;;;9.21;100.00;96965.81;4966362;28;20481;-70
2023/10/30 06:34:15;;;;;;;3.97;3.57;;;9.70;99.90;;;8.97;100.00;96970.34;4967656;28;20461;-70
2023/10/30 06:36:42;;;;;;;4.60;3.43;;;9.60;99.90;;;8.98;100.00;96971.97;4964500;28;20467;-70
2023/10/30 06:39:09;;;;;;;4.17;3.30;;;9.50;99.90;;;9.23;100.00;96971.78;4963613;28;21037;-70
2023/10/30 06:41:36;;;;;;;4.03;3.73;;;9.70;99.90;;;8.96;100.00;96974.09;4947094;28;20600;-70
2023/10/30 06:44:06;;;;;;;5.50;3.33;;;9.60;99.90;;;8.87;100.00;96960.94;4967447;28;20467;-69
2023/10/30 06:46:33;;;;;;;7.00;3.47;;;9.60;99.90;;;9.04;100.00;96961.09;4967237;28;20456;-69
2023/10/30 06:49:00;;;;;;;4.53;3.40;;;9.60;99.90;;;9.35;100.00;96978.00;4966199;28;20446;-69
2023/10/30 06:51:27;;;;;;;7.27;2.67;;;9.80;99.90;;;9.17;100.00;96975.38;4965243;28;20497;-71
2023/10/30 06:53:55;;;;;;;6.10;3.33;;;9.80;99.90;;;9.09;100.00;96968.47;4952384;28;20472;-70
2023/10/30 06:56:24;;;;;;;7.00;2.93;;;9.80;99.90;;;9.25;100.00;96942.72;4947933;28;20508;-70
2023/10/30 06:58:52;;;;;;;7.30;3.53;;;9.90;99.90;;;9.33;100.00;96950.47;4968104;28;20975;-71
2023/10/30 07:01:20;;;;;;;6.60;3.27;;;9.90;99.90;;;9.42;100.00;96948.25;4962736;28;20469;-70
2023/10/30 07:03:49;;;;;;;3.80;3.37;;;9.90;99.90;;;9.48;100.00;96943.78;4954003;28;20512;-70
2023/10/30 07:06:16;;;;;;;5.93;3.50;;;10.00;99.90;;;9.45;100.00;96955.03;4951981;28;20565;-69
2023/10/30 07:08:43;;;;;;;7.47;2.87;;;10.00;99.90;;;9.38;100.00;96960.53;4953831;28;20440;-70
2023/10/30 07:11:11;;;;;;;3.47;2.73;;;10.00;99.90;;;9.50;100.00;96972.16;4945343;28;21057;-68
2023/10/30 07:13:38;;;;;;;3.50;2.93;;;10.00;99.90;;;9.75;100.00;96981.06;4966394;28;21035;-68
2023/10/30 07:16:07;;;;;;;7.50;3.60;;;10.20;99.90;;;9.59;100.00;96980.69;4947892;28;20463;-68
2023/10/30 07:18:36;;;;;;;5.00;3.20;;;10.20;99.90;;;9.56;100.00;96973.09;4966334;28;20858;-69
2023/10/30 07:21:03;;;;;;;6.93;3.90;;;10.10;99.90;;;9.77;100.00;96960.88;4954235;28;20938;-69
2023/10/30 07:23:30;;;;;;;7.07;3.90;;;10.20;99.90;;;9.74;100.00;96961.38;4953301;28;20805;-69
2023/10/30 07:25:58;;;;;;;5.07;3.17;;;10.30;99.90;;;9.71;100.00;96964.53;4978357;28;20461;-70
2023/10/30 07:28:25;;;;;;;5.30;3.10;;;10.30;99.90;;;10.09;100.00;96972.34;4965469;28;21566;-73
2023/10/30 07:30:52;;;;;;;4.93;2.90;;;10.50;99.90;;;10.19;100.00;96976.06;4966562;28;20469;-73
2023/10/30 07:33:20;;;;;;;5.50;2.80;;;10.60;99.90;;;9.93;100.00;96920.75;4950198;28;21043;-72
2023/10/30 07:35:53;;;;;;;3.50;2.30;;;10.70;99.90;;;10.46;100.00;96986.34;4963722;28;20464;-72
2023/10/30 07:38:21;;;;;;;5.60;2.70;;;10.80;99.90;;;10.54;100.00;96984.31;4964114;28;20603;-73
2023/10/30 07:40:48;;;;;;;4.83;2.87;;;10.90;98.20;;;10.43;100.00;96938.22;4968562;28;20463;-72
2023/10/30 07:43:15;;;;;;;2.27;1.87;;;11.10;98.40;;;10.84;100.00;96983.25;4967733;28;20582;-73
2023/10/30 07:45:42;;;;;;;4.00;2.40;;;11.20;97.00;;;10.85;100.00;96971.41;4942719;28;20449;-71
2023/10/30 07:48:09;;;;;;;2.93;2.63;;;11.30;95.50;;;10.86;100.00;96967.66;4968967;28;20464;-72
2023/10/30 07:50:37;;;;;;;3.60;2.77;;;11.30;95.30;;;11.14;100.00;96969.47;4967741;28;20486;-71
2023/10/30 07:53:06;;;;;;;2.60;2.40;;;11.50;95.70;;;11.00;99.82;96970.84;4948595;28;20778;-72
2023/10/30 07:55:33;;;;;;;2.83;2.60;;;11.50;95.10;;;11.32;98.45;96965.72;4964674;28;20516;-72
2023/10/30 07:58:01;;;;;;;3.03;2.40;;;11.70;95.00;;;11.40;96.03;96969.06;4965885;28;20533;-72
2023/10/30 08:00:28;;;;;;;2.90;2.10;;;11.80;93.50;;;11.36;97.13;96960.59;4973016;28;20469;-71
2023/10/30 08:02:55;;;;;;;3.23;2.17;;;11.80;93.80;;;11.33;97.04;96961.09;4967872;28;20465;-72
2023/10/30 08:05:23;;;;;;;3.60;2.27;;;11.80;93.60;;;11.21;97.54;96972.00;4975674;28;20464;-72
2023/10/30 08:07:50;;;;;;;2.10;1.90;;;11.70;93.40;;;11.27;97.86;96954.00;4975411;28;20537;-73
2023/10/30 08:10:19;;;;;;;3.20;1.80;;;11.70;93.70;;;11.62;95.68;96967.25;4959073;28;20482;-72
2023/10/30 08:12:47;;;;;;;4.07;2.17;;;11.90;93.20;;;11.61;94.77;96971.03;4967660;28;20571;-72
2023/10/30 08:15:14;;;;;;;3.80;2.20;;;12.00;92.90;;;11.72;94.67;96965.75;4951381;28;20453;-72
2023/10/30 08:17:41;;;;;;;5.70;2.50;;;12.10;92.60;;;11.76;94.41;96958.78;4968659;28;20457;-73
2023/10/30 08:20:11;;;;;;;3.87;1.90;;;12.20;92.60;;;11.89;93.03;96946.78;4969235;28;20486;-72
2023/10/30 08:22:38;;;;;;;6.53;2.37;;;12.30;92.20;;;12.20;92.26;96968.84;4972221;28;20459;-73
2023/10/30 08:25:06;;;;;;;4.30;2.67;;;12.50;92.20;;;12.27;91.07;96977.59;4967676;28;20453;-72
2023/10/30 08:27:35;;;;;;;2.77;2.17;;;12.50;91.70;;;12.49;90.22;96971.38;4976348;28;20465;-73
2023/10/30 08:30:05;;;;;;;3.33;2.10;;;12.70;91.50;;;12.54;89.86;96967.91;4969613;28;20535;-73
2023/10/30 08:32:32;;;;;;;2.30;2.10;;;12.80;91.20;;;12.71;88.68;96975.94;4951200;28;21172;-72
2023/10/30 08:35:02;;;;;;;4.43;1.60;;;12.80;91.20;;;12.63;87.39;96977.19;4953263;28;20477;-72
2023/10/30 08:37:29;;;;;;;3.27;1.93;;;12.90;90.50;;;12.47;88.31;96968.09;4967250;28;21029;-74
2023/10/30 08:39:56;;;;;;;2.80;2.43;;;12.80;90.50;;;12.53;87.94;96977.09;4942418;28;20454;-74
2023/10/30 08:42:24;;;;;;;3.30;2.30;;;12.90;90.40;;;12.64;87.23;96976.13;4967140;28;20470;-75
2023/10/30 08:44:52;;;;;;;3.93;2.27;;;12.90;90.30;;;12.56;87.71;96976.59;4967874;28;20466;-73
2023/10/30 08:47:19;;;;;;;2.93;2.33;;;12.90;90.20;;;12.57;87.10;96972.81;4972957;28;20455;-74
2023/10/30 08:49:47;;;;;;;4.77;2.43;;;12.90;90.10;;;12.59;87.29;96970.66;4971431;28;20457;-73
2023/10/30 08:52:14;;;;;;;4.87;2.67;;;12.90;90.10;;;12.69;86.99;96964.53;4967512;28;20485;-73
2023/10/30 08:54:43;;;;;;;4.30;2.80;;;13.00;90.10;;;12.84;85.61;96945.72;4950675;28;20774;-74
2023/10/30 08:57:10;;;;;;;2.97;2.50;;;13.10;89.70;;;12.91;85.52;96940.09;4951024;28;20452;-74
2023/10/30 08:59:40;;;;;;;2.97;2.40;;;13.20;89.70;;;13.27;84.69;96945.84;4978349;28;20764;-74
2023/10/30 09:02:10;;;;;;;8.27;3.37;;;13.40;90.00;;;13.07;83.99;96948.34;4966744;28;20554;-73
2023/10/30 09:04:38;;;;;;;5.60;3.30;;;13.40;88.80;;;13.09;83.57;96946.19;4967618;28;21235;-74
2023/10/30 09:07:05;;;;;;;4.27;3.77;;;13.50;88.60;;;13.32;84.36;96951.28;4959366;28;20493;-73
2023/10/30 09:09:33;;;;;;;4.97;3.73;;;13.50;88.90;;;13.41;83.53;96948.09;4948335;28;20471;-74
2023/10/30 09:12:00;;;;;;;3.70;3.27;;;13.60;88.70;;;13.07;83.45;96938.34;4968939;28;20536;-74
2023/10/30 09:14:28;;;;;;;4.37;3.63;;;13.60;88.10;;;13.43;84.49;96940.53;4963492;28;20914;-73
2023/10/30 09:16:55;;;;;;;5.90;5.40;;;13.60;89.10;;;13.67;83.10;96934.72;4967462;28;20449;-74
2023/10/30 09:19:24;;;;;;;6.30;4.00;;;13.80;89.00;;;13.60;82.63;96924.09;4945896;28;20469;-75
2023/10/30 09:21:52;;;;;;;4.10;3.43;;;13.90;88.20;;;13.66;81.95;96917.63;4950538;28;20451;-74
2023/10/30 09:24:19;;;;;;;5.57;2.87;;;14.00;87.80;;;13.75;81.84;96912.53;4968273;28;20470;-74
2023/10/30 09:26:46;;;;;;;6.13;3.60;;;14.20;87.60;;;14.26;81.15;96911.13;4977300;28;20462;-73
2023/10/30 09:29:13;;;;;;;2.53;2.33;;;14.40;87.90;;;14.36;78.88;96889.44;4953066;28;20463;-74
2023/10/30 09:31:40;;;;;;;3.20;2.87;;;14.60;86.80;;;14.27;78.78;96899.16;4965371;28;20539;-74
2023/10/30 09:34:08;;;;;;;3.53;2.60;;;14.70;86.20;;;13.99;79.82;96887.66;4962941;28;20523;-73
2023/10/30 09:36:36;;;;;;;3.70;2.17;;;14.60;86.10;;;14.05;78.63;96878.47;4968006;28;20469;-74
2023/10/30 09:39:04;;;;;;;2.33;1.60;;;14.60;85.70;;;14.07;78.25;96884.44;4966837;28;20464;-73
2023/10/30 09:41:36;;;;;;;1.70;0.97;;;14.60;85.60;;;14.08;78.92;96883.34;4967170;28;20921;-73
2023/10/30 09:44:06;;;;;;;2.27;1.43;;;14.50;85.80;;;14.33;78.81;96879.09;4956744;28;20454;-74
2023/10/30 09:46:33;;;;;;;1.43;1.13;;;14.70;86.10;;;14.55;77.85;96883.47;4952166;28;20576;-75
2023/10/30 09:49:01;;;;;;;1.40;1.30;;;14.80;86.00;;;14.70;77.52;96872.63;4955091;28;20475;-75
2023/10/30 09:51:30;;;;;;;1.43;1.20;;;15.00;85.80;;;14.58;77.91;96869.34;4961728;28;20464;-75
2023/10/30 09:54:00;;;;;;;1.93;1.63;;;15.10;85.80;;;14.89;79.13;96868.59;4967248;28;20482;-74
2023/10/30 09:56:31;;;;;;;2.93;1.20;;;15.10;86.50;;;14.94;77.58;96877.59;4967362;28;20467;-73
2023/10/30 09:58:59;;;;;;;1.20;1.10;;;15.30;86.10;;;15.22;76.27;96880.81;4961610;28;20478;-73
2023/10/30 10:01:27;;;;;;;2.77;1.50;;;15.40;85.80;;;15.35;76.06;96870.47;4964922;28;20550;-73
2023/10/30 10:03:55;;;;;;;2.47;1.40;;;15.50;85.60;;;15.44;73.73;96877.00;4974295;28;20462;-73
2023/10/30 10:06:23;;;;;;;1.77;1.00;;;15.70;84.40;;;15.54;71.59;96865.25;4954522;28;20499;-74
2023/10/30 10:08:50;;;;;;;1.30;1.00;;;15.80;83.10;;;15.53;71.98;96880.75;4965670;28;20934;-75
2023/10/30 10:11:22;;;;;;;3.30;1.33;;;15.90;83.30;;;15.48;73.24;96866.38;4961341;28;20464;-76
2023/10/30 10:13:53;;;;;;;1.43;1.13;;;15.80;83.40;;;15.71;71.30;96873.13;4964470;28;20772;-75
2023/10/30 10:16:28;;;;;;;0.80;0.80;;;16.00;82.80;;;15.29;69.43;96869.66;4970534;28;20813;-77
2023/10/30 10:18:56;;;;;;;0.50;0.50;;;15.80;80.70;;;15.56;70.14;96877.50;4968294;28;20487;-75